createdAt,value
2022-12-08T00:00:28.354Z,29.67
2022-12-08T00:03:14.486Z,30.63
2022-12-08T00:06:22.172Z,29.70
2022-12-08T00:09:22.123Z,33.30
2022-12-08T00:12:12.091Z,32.92
2022-12-08T00:14:57.548Z,35.30
2022-12-08T00:17:47.074Z,28.30
2022-12-08T00:20:32.364Z,31.05
2022-12-08T00:23:19.136Z,28.90
2022-12-08T00:26:05.306Z,31.10
2022-12-08T00:28:50.700Z,30.73
2022-12-08T00:31:36.743Z,30.75
2022-12-08T00:34:22.419Z,32.30
2022-12-08T00:37:12.358Z,32.35
2022-12-08T00:39:59.301Z,32.22
2022-12-08T00:42:44.787Z,31.63
2022-12-08T00:45:30.134Z,37.05
2022-12-08T00:48:15.459Z,33.75
2022-12-08T00:51:00.768Z,31.90
2022-12-08T00:53:47.441Z,34.67
2022-12-08T00:56:35.029Z,36.63
2022-12-08T00:59:20.531Z,36.42
2022-12-08T01:02:05.837Z,32.35
2022-12-08T01:04:51.428Z,32.92
2022-12-08T01:07:37.252Z,34.08
2022-12-08T01:10:22.928Z,34.90
2022-12-08T01:13:21.808Z,32.72
2022-12-08T01:16:07.604Z,33.97
2022-12-08T01:19:09.939Z,37.20
2022-12-08T01:21:55.413Z,34.25
2022-12-08T01:27:40.361Z,32.92
2022-12-08T01:30:27.454Z,34.95
2022-12-08T01:33:13.163Z,32.42
2022-12-08T01:36:03.233Z,33.00
2022-12-08T01:38:48.823Z,30.90
2022-12-08T01:41:36.447Z,32.13
2022-12-08T01:44:53.711Z,30.35
2022-12-08T01:47:44.160Z,29.30
2022-12-08T01:50:31.933Z,27.55
2022-12-08T01:53:23.257Z,28.53
2022-12-08T01:56:11.626Z,29.80
2022-12-08T01:58:57.837Z,29.48
2022-12-08T02:01:45.179Z,25.55
2022-12-08T02:04:32.126Z,26.65
2022-12-08T02:07:18.695Z,27.23
2022-12-08T02:10:05.489Z,29.58
2022-12-08T02:12:56.302Z,25.63
2022-12-08T02:15:52.904Z,25.00
2022-12-08T02:19:22.511Z,26.95
2022-12-08T02:22:11.814Z,26.53
2022-12-08T02:25:03.642Z,25.95
2022-12-08T02:28:03.406Z,25.52
2022-12-08T02:31:02.692Z,28.48
2022-12-08T02:34:12.798Z,28.15
2022-12-08T02:37:07.120Z,29.13
2022-12-08T02:40:00.784Z,26.63
2022-12-08T02:42:52.191Z,28.88
2022-12-08T02:45:44.583Z,28.70
2022-12-08T02:48:32.696Z,26.88
2022-12-08T02:51:19.662Z,26.50
2022-12-08T02:54:05.437Z,26.90
2022-12-08T02:57:23.814Z,28.20
2022-12-08T03:00:13.485Z,29.00
2022-12-08T03:03:09.540Z,27.38
2022-12-08T03:06:07.026Z,27.40
2022-12-08T03:08:57.886Z,24.63
2022-12-08T03:11:48.849Z,25.10
2022-12-08T03:14:36.571Z,27.27
2022-12-08T03:17:26.255Z,27.98
2022-12-08T03:20:16.262Z,25.75
2022-12-08T03:23:05.509Z,29.00
2022-12-08T03:26:01.930Z,27.45
2022-12-08T03:28:47.352Z,29.10
2022-12-08T03:31:38.340Z,26.15
2022-12-08T03:34:28.203Z,24.70
2022-12-08T03:37:15.446Z,28.95
2022-12-08T03:40:01.304Z,30.80
2022-12-08T03:42:48.456Z,27.70
2022-12-08T03:45:34.365Z,29.83
2022-12-08T03:48:20.064Z,27.00
2022-12-08T03:51:05.578Z,28.70
2022-12-08T03:53:51.245Z,27.48
2022-12-08T03:56:38.711Z,25.27
2022-12-08T03:59:26.348Z,26.65
2022-12-08T04:02:11.894Z,26.77
2022-12-08T04:04:58.975Z,28.20
2022-12-08T04:07:44.743Z,27.00
2022-12-08T04:10:30.001Z,25.52
2022-12-08T04:13:15.436Z,27.15
2022-12-08T04:16:02.926Z,28.90
2022-12-08T04:18:48.563Z,28.90
2022-12-08T04:21:34.224Z,26.27
2022-12-08T04:24:19.884Z,26.45
2022-12-08T04:27:05.640Z,25.77
2022-12-08T04:29:51.479Z,29.23
2022-12-08T04:32:41.720Z,28.45
2022-12-08T04:35:31.127Z,28.35
2022-12-08T04:38:17.550Z,28.83
2022-12-08T04:41:04.731Z,27.05
2022-12-08T04:43:50.257Z,28.17
2022-12-08T04:46:40.209Z,27.25
2022-12-08T04:49:30.383Z,27.92
2022-12-08T04:52:15.645Z,26.90
2022-12-08T04:55:10.547Z,28.08
2022-12-08T04:57:56.082Z,28.23
2022-12-08T05:00:42.068Z,26.92
2022-12-08T05:03:39.637Z,24.77
2022-12-08T05:06:26.392Z,26.08
2022-12-08T05:09:16.876Z,25.80
2022-12-08T05:12:04.623Z,26.23
2022-12-08T05:14:50.235Z,23.80
2022-12-08T05:17:35.572Z,23.48
2022-12-08T05:20:20.825Z,26.92
2022-12-08T05:23:07.619Z,26.48
2022-12-08T05:25:52.986Z,25.77
2022-12-08T05:28:43.009Z,27.25
2022-12-08T05:31:29.215Z,29.80
2022-12-08T05:34:14.864Z,29.42
2022-12-08T05:37:00.696Z,28.95
2022-12-08T05:39:48.098Z,30.83
2022-12-08T05:42:33.818Z,32.30
2022-12-08T05:45:21.608Z,32.15
2022-12-08T05:48:08.104Z,31.10
2022-12-08T05:50:53.988Z,30.27
2022-12-08T05:53:40.318Z,32.55
2022-12-08T05:56:28.224Z,30.15
2022-12-08T05:59:16.925Z,28.13
2022-12-08T06:02:02.480Z,34.20
2022-12-08T06:04:48.070Z,32.85
2022-12-08T06:07:33.386Z,35.07
2022-12-08T06:10:18.796Z,37.40
2022-12-08T06:13:07.175Z,42.90
2022-12-08T06:15:52.586Z,38.85
2022-12-08T06:18:37.892Z,39.65
2022-12-08T06:21:23.890Z,44.87
2022-12-08T06:24:09.419Z,43.35
2022-12-08T06:27:01.009Z,43.80
2022-12-08T06:29:47.695Z,43.33
2022-12-08T06:32:33.177Z,44.90
2022-12-08T06:35:18.952Z,41.93
2022-12-08T06:38:05.528Z,41.30
2022-12-08T06:40:58.577Z,37.33
2022-12-08T06:43:44.884Z,36.80
2022-12-08T06:46:31.691Z,39.78
2022-12-08T06:49:17.378Z,36.07
2022-12-08T06:52:02.733Z,35.53
2022-12-08T06:54:47.817Z,38.40
2022-12-08T06:57:34.611Z,31.90
2022-12-08T07:00:20.339Z,33.72
2022-12-08T07:03:15.710Z,37.97
2022-12-08T07:06:07.474Z,32.58
2022-12-08T07:08:56.121Z,34.95
2022-12-08T07:11:41.758Z,35.78
2022-12-08T07:14:27.294Z,32.20
2022-12-08T07:17:12.537Z,32.37
2022-12-08T07:19:59.725Z,31.52
2022-12-08T07:26:02.095Z,32.22
2022-12-08T07:28:48.016Z,29.20
2022-12-08T07:31:40.495Z,30.53
2022-12-08T07:34:28.183Z,30.15
2022-12-08T07:37:15.783Z,27.75
2022-12-08T07:40:03.846Z,30.17
2022-12-08T07:42:51.563Z,29.45
2022-12-08T07:45:36.941Z,27.07
2022-12-08T07:48:22.669Z,30.42
2022-12-08T07:51:09.193Z,29.70
2022-12-08T07:53:56.155Z,29.55
2022-12-08T07:56:47.499Z,29.98
2022-12-08T07:59:33.709Z,32.03
2022-12-08T08:02:24.901Z,31.00
2022-12-08T08:05:14.887Z,31.95
2022-12-08T08:08:06.428Z,36.55
2022-12-08T08:11:18.990Z,40.45
2022-12-08T08:14:15.904Z,34.93
2022-12-08T08:17:11.176Z,34.95
2022-12-08T08:19:56.979Z,39.17
2022-12-08T08:22:45.464Z,36.17
2022-12-08T08:25:31.137Z,41.03
2022-12-08T08:28:18.650Z,38.70
2022-12-08T08:31:05.669Z,39.33
2022-12-08T08:33:51.329Z,42.65
2022-12-08T08:36:39.452Z,37.58
2022-12-08T08:39:33.223Z,38.47
2022-12-08T08:42:19.322Z,39.00
2022-12-08T08:45:09.108Z,38.38
2022-12-08T08:50:55.166Z,40.80
2022-12-08T08:53:41.121Z,36.85
2022-12-08T08:56:27.626Z,36.20
2022-12-08T08:59:13.385Z,37.58
2022-12-08T09:02:00.495Z,36.75
2022-12-08T09:04:46.618Z,35.10
2022-12-08T09:07:41.428Z,37.67
2022-12-08T09:10:27.608Z,32.17
2022-12-08T09:13:13.538Z,32.65
2022-12-08T09:16:01.305Z,33.70
2022-12-08T09:18:49.700Z,35.17
2022-12-08T09:21:35.800Z,32.97
2022-12-08T09:24:21.392Z,34.50
2022-12-08T09:27:07.004Z,32.80
2022-12-08T09:29:52.698Z,33.20
2022-12-08T09:32:39.470Z,32.13
2022-12-08T09:35:26.623Z,28.35
2022-12-08T09:38:12.413Z,32.47
2022-12-08T09:40:59.497Z,30.05
2022-12-08T09:43:59.721Z,31.00
2022-12-08T09:46:47.903Z,27.65
2022-12-08T09:49:39.333Z,29.58
2022-12-08T09:52:30.223Z,29.10
2022-12-08T09:55:23.841Z,28.42
2022-12-08T09:58:36.154Z,32.78
2022-12-08T10:01:23.269Z,30.10
2022-12-08T10:04:18.598Z,26.65
2022-12-08T10:07:12.686Z,31.13
2022-12-08T10:10:05.648Z,30.27
2022-12-08T10:12:55.325Z,29.23
2022-12-08T10:15:47.270Z,30.17
2022-12-08T10:18:34.325Z,29.30
2022-12-08T10:21:23.038Z,28.40
2022-12-08T10:24:16.441Z,28.52
2022-12-08T10:27:04.186Z,27.38
2022-12-08T10:30:28.252Z,26.48
2022-12-08T10:33:17.526Z,27.50
2022-12-08T10:36:04.947Z,27.90
2022-12-08T10:38:50.805Z,26.30
2022-12-08T10:41:36.176Z,30.23
2022-12-08T10:44:24.176Z,27.13
2022-12-08T10:47:12.573Z,26.42
2022-12-08T10:50:49.364Z,27.40
2022-12-08T10:53:46.094Z,25.73
2022-12-08T10:56:32.834Z,26.73
2022-12-08T10:59:19.472Z,25.02
2022-12-08T11:02:19.863Z,27.80
2022-12-08T11:05:06.843Z,27.17
2022-12-08T11:07:55.307Z,26.23
2022-12-08T11:10:44.686Z,30.23
2022-12-08T11:13:30.715Z,27.40
2022-12-08T11:16:19.808Z,26.85
2022-12-08T11:19:06.923Z,27.43
2022-12-08T11:21:52.283Z,23.90
2022-12-08T11:24:38.056Z,27.13
2022-12-08T11:27:23.713Z,28.08
2022-12-08T11:30:16.143Z,30.80
2022-12-08T11:33:30.389Z,28.08
2022-12-08T11:36:17.521Z,28.20
2022-12-08T11:39:05.841Z,30.20
2022-12-08T11:41:54.665Z,28.98
2022-12-08T11:44:45.257Z,25.70
2022-12-08T11:47:34.690Z,30.57
2022-12-08T11:50:24.582Z,30.40
2022-12-08T11:53:21.087Z,25.50
2022-12-08T11:56:13.567Z,27.42
2022-12-08T11:59:01.931Z,28.92
2022-12-08T12:01:47.412Z,28.93
2022-12-08T12:04:37.522Z,27.20
2022-12-08T12:07:58.230Z,27.95
2022-12-08T12:11:06.027Z,25.88
2022-12-08T12:14:03.052Z,28.52
2022-12-08T12:16:58.900Z,28.37
2022-12-08T12:19:46.085Z,28.83
2022-12-08T12:22:36.011Z,27.48
2022-12-08T12:25:24.159Z,29.65
2022-12-08T12:28:13.574Z,27.92
2022-12-08T12:31:03.188Z,28.42
2022-12-08T12:33:49.912Z,28.27
2022-12-08T12:36:49.273Z,29.00
2022-12-08T12:39:48.077Z,25.67
2022-12-08T12:42:41.369Z,28.73
2022-12-08T12:45:31.315Z,29.67
2022-12-08T12:48:23.274Z,29.25
2022-12-08T12:51:36.581Z,28.95
2022-12-08T12:54:23.707Z,30.33
2022-12-08T12:57:20.941Z,29.58
2022-12-08T13:00:10.299Z,28.43
2022-12-08T13:02:58.641Z,32.10
2022-12-08T13:05:50.313Z,33.70
2022-12-08T13:08:35.838Z,29.55
2022-12-08T13:11:22.418Z,30.48
2022-12-08T13:14:30.142Z,29.47
2022-12-08T13:17:25.977Z,30.70
2022-12-08T13:20:20.775Z,29.77
2022-12-08T13:23:29.963Z,29.55
2022-12-08T13:26:19.630Z,30.92
2022-12-08T13:29:17.642Z,28.47
2022-12-08T13:32:04.075Z,29.05
2022-12-08T13:34:53.384Z,29.80
2022-12-08T13:37:54.279Z,30.27
2022-12-08T13:40:43.346Z,28.92
2022-12-08T13:43:47.372Z,31.03
2022-12-08T13:57:01.013Z,32.70
2022-12-08T13:59:30.381Z,34.63
2022-12-08T14:02:20.648Z,36.80
2022-12-08T14:05:18.229Z,46.45
2022-12-08T14:08:25.144Z,50.95
2022-12-08T14:11:33.643Z,53.22
2022-12-08T14:14:46.277Z,56.72
2022-12-08T14:17:29.124Z,54.40
2022-12-08T14:20:23.490Z,53.92
2022-12-08T14:23:10.240Z,51.70
2022-12-08T14:25:56.714Z,55.38
2022-12-08T14:28:45.225Z,49.53
2022-12-08T14:31:31.173Z,56.90
2022-12-08T14:34:16.772Z,48.85
2022-12-08T14:37:02.446Z,48.55
2022-12-08T14:39:49.939Z,47.67
2022-12-08T14:42:43.902Z,48.93
2022-12-08T14:45:29.736Z,50.97
2022-12-08T14:48:23.438Z,55.95
2022-12-08T14:51:16.625Z,49.13
2022-12-08T14:54:06.659Z,48.80
2022-12-08T14:56:56.438Z,53.90
2022-12-08T14:59:43.556Z,44.80
2022-12-08T15:02:32.165Z,48.90
2022-12-08T15:05:20.823Z,44.97
2022-12-08T15:08:09.831Z,46.17
2022-12-08T15:11:27.523Z,45.03
2022-12-08T15:14:30.797Z,47.08
2022-12-08T15:17:31.657Z,44.45
2022-12-08T15:20:35.081Z,45.40
2022-12-08T15:23:25.724Z,41.97
2022-12-08T15:26:20.579Z,40.00
2022-12-08T15:29:11.804Z,41.30
2022-12-08T15:32:01.199Z,42.67
2022-12-08T15:34:47.099Z,39.40
2022-12-08T15:37:32.398Z,43.45
2022-12-08T15:40:20.834Z,41.50
2022-12-08T15:43:09.907Z,43.25
2022-12-08T15:45:59.848Z,37.88
2022-12-08T15:48:47.375Z,44.05
2022-12-08T15:51:36.579Z,39.90
2022-12-08T15:54:22.094Z,38.97
2022-12-08T15:57:20.464Z,40.05
2022-12-08T16:00:51.259Z,38.35
2022-12-08T16:09:45.754Z,40.03
2022-12-08T16:16:00.501Z,42.38
2022-12-08T16:18:48.087Z,41.30
2022-12-08T16:24:41.584Z,43.40
2022-12-08T16:27:59.914Z,48.78
2022-12-08T16:30:34.929Z,48.30
2022-12-08T16:33:21.237Z,46.58
2022-12-08T16:36:06.996Z,47.45
2022-12-08T16:38:52.973Z,48.00
2022-12-08T16:41:59.105Z,51.40
2022-12-08T16:44:44.766Z,50.80
2022-12-08T16:47:30.781Z,44.70
2022-12-08T16:50:18.460Z,46.33
2022-12-08T16:53:06.027Z,46.37
2022-12-08T16:55:51.842Z,51.05
2022-12-08T16:58:39.266Z,47.45
2022-12-08T17:01:25.253Z,46.85
2022-12-08T17:07:16.478Z,46.40
2022-12-08T17:10:06.390Z,46.15
2022-12-08T17:12:52.773Z,49.15
2022-12-08T17:15:40.449Z,45.78
2022-12-08T17:18:26.393Z,45.60
2022-12-08T17:21:12.391Z,46.38
2022-12-08T17:23:57.585Z,46.10
2022-12-08T17:26:43.601Z,49.50
2022-12-08T17:29:29.803Z,45.95
2022-12-08T17:32:18.243Z,45.03
2022-12-08T17:35:04.198Z,47.83
2022-12-08T17:37:50.359Z,43.55
2022-12-08T17:40:37.210Z,45.35
2022-12-08T17:43:24.850Z,43.38
2022-12-08T17:46:17.023Z,53.15
2022-12-08T17:49:08.725Z,46.93
2022-12-08T17:51:56.720Z,46.20
2022-12-08T17:54:42.353Z,42.83
2022-12-08T17:57:27.890Z,45.78
2022-12-08T18:00:14.369Z,43.10
2022-12-08T18:03:01.284Z,44.83
2022-12-08T18:05:49.850Z,44.42
2022-12-08T18:08:36.843Z,41.85
2022-12-08T18:11:22.712Z,42.97
2022-12-08T18:14:11.488Z,43.97
2022-12-08T18:16:57.567Z,45.80
2022-12-08T18:19:44.139Z,44.83
2022-12-08T18:22:44.465Z,47.28
2022-12-08T18:25:30.392Z,43.15
2022-12-08T18:28:16.272Z,43.28
2022-12-08T18:31:02.082Z,48.63
2022-12-08T18:33:48.572Z,43.80
2022-12-08T18:36:35.556Z,48.35
2022-12-08T18:39:26.149Z,49.20
2022-12-08T18:42:24.895Z,50.60
2022-12-08T18:45:11.761Z,50.90
2022-12-08T18:47:58.502Z,48.35
2022-12-08T18:50:45.165Z,58.17
2022-12-08T18:53:31.768Z,56.50
2022-12-08T18:56:27.451Z,51.40
2022-12-08T18:59:14.544Z,51.67
2022-12-08T19:02:02.711Z,52.70
2022-12-08T19:04:57.066Z,54.53
2022-12-08T19:07:45.882Z,57.13
2022-12-08T19:10:32.842Z,55.95
2022-12-08T19:13:20.354Z,58.65
2022-12-08T19:16:07.314Z,60.03
2022-12-08T19:18:53.832Z,55.35
2022-12-08T19:21:45.939Z,55.88
2022-12-08T19:24:34.864Z,56.80
2022-12-08T19:27:25.064Z,55.97
2022-12-08T19:30:14.368Z,56.47
2022-12-08T19:33:01.000Z,55.72
2022-12-08T19:35:52.710Z,50.17
2022-12-08T19:38:58.827Z,54.15
2022-12-08T19:42:04.871Z,53.90
2022-12-08T19:44:54.671Z,52.38
2022-12-08T19:47:53.450Z,53.38
2022-12-08T19:50:41.015Z,54.60
2022-12-08T19:53:29.103Z,59.30
2022-12-08T19:56:17.056Z,56.17
2022-12-08T19:59:04.568Z,56.75
2022-12-08T20:01:53.195Z,54.55
2022-12-08T20:04:40.846Z,54.50
2022-12-08T20:07:27.525Z,54.53
2022-12-08T20:10:18.347Z,58.95
2022-12-08T20:13:24.435Z,52.63
2022-12-08T20:16:20.991Z,53.03
2022-12-08T20:19:08.187Z,52.47
2022-12-08T20:21:58.187Z,53.08
2022-12-08T20:24:47.858Z,49.25
2022-12-08T20:27:36.427Z,55.33
2022-12-08T20:30:22.395Z,54.67
2022-12-08T20:33:09.081Z,55.78
2022-12-08T20:36:00.233Z,53.88
2022-12-08T20:38:49.128Z,55.10
2022-12-08T20:41:39.303Z,55.15
2022-12-08T20:44:29.975Z,52.05
2022-12-08T20:47:17.372Z,53.10
2022-12-08T20:50:05.631Z,51.25
2022-12-08T20:52:52.686Z,52.53
2022-12-08T20:55:43.410Z,51.95
2022-12-08T20:58:29.818Z,50.58
2022-12-08T21:01:19.939Z,52.45
2022-12-08T21:04:07.211Z,50.90
2022-12-08T21:06:53.077Z,48.88
2022-12-08T21:09:51.744Z,49.90
2022-12-08T21:12:39.345Z,50.63
2022-12-08T21:15:25.268Z,51.85
2022-12-08T21:18:11.217Z,49.08
2022-12-08T21:21:02.321Z,48.20
2022-12-08T21:23:48.453Z,46.05
2022-12-08T21:26:34.151Z,49.03
2022-12-08T21:29:21.386Z,47.00
2022-12-08T21:32:09.053Z,45.58
2022-12-08T21:34:54.900Z,43.50
2022-12-08T21:37:40.454Z,44.53
2022-12-08T21:40:27.091Z,46.42
2022-12-08T21:43:13.769Z,40.97
2022-12-08T21:46:00.951Z,43.22
2022-12-08T21:48:47.012Z,44.00
2022-12-08T21:51:35.149Z,43.30
2022-12-08T21:54:20.869Z,43.80
2022-12-08T21:57:06.566Z,43.13
2022-12-08T21:59:52.091Z,41.95
2022-12-08T22:02:39.435Z,41.53
2022-12-08T22:05:25.434Z,44.80
2022-12-08T22:08:11.647Z,43.08
2022-12-08T22:10:57.323Z,41.72
2022-12-08T22:13:43.118Z,42.25
2022-12-08T22:16:29.000Z,41.08
2022-12-08T22:19:16.352Z,37.35
2022-12-08T22:22:02.655Z,37.28
2022-12-08T22:24:48.271Z,42.63
2022-12-08T22:27:36.199Z,41.90
2022-12-08T22:30:22.152Z,39.15
2022-12-08T22:33:08.004Z,38.83
2022-12-08T22:36:01.306Z,38.67
2022-12-08T22:38:50.934Z,42.15
2022-12-08T22:41:36.535Z,36.80
2022-12-08T22:44:22.409Z,39.60
2022-12-08T22:47:08.392Z,38.47
2022-12-08T22:49:54.527Z,40.58
2022-12-08T22:52:41.680Z,41.75
2022-12-08T22:55:27.507Z,38.35
2022-12-08T22:58:13.501Z,39.95
2022-12-08T23:00:59.442Z,39.90
2022-12-08T23:03:45.553Z,39.47
2022-12-08T23:06:31.818Z,37.90
2022-12-08T23:09:18.906Z,42.58
2022-12-08T23:12:05.417Z,37.97
2022-12-08T23:14:51.183Z,39.35
2022-12-08T23:17:36.827Z,36.03
2022-12-08T23:20:22.535Z,38.00
2022-12-08T23:23:07.965Z,36.72
2022-12-08T23:25:55.018Z,37.05
2022-12-08T23:28:40.661Z,36.20
2022-12-08T23:31:26.660Z,37.45
2022-12-08T23:34:12.571Z,37.58
2022-12-08T23:36:58.548Z,37.38
2022-12-08T23:39:44.489Z,36.23
2022-12-08T23:42:31.764Z,35.80
2022-12-08T23:45:17.621Z,41.10
2022-12-08T23:48:03.627Z,38.35
2022-12-08T23:50:49.488Z,36.75
2022-12-08T23:53:34.990Z,35.50
2022-12-08T23:56:22.213Z,36.45
2022-12-08T23:59:11.580Z,36.10
